createdAt,value
2022-11-20T00:04:16.544Z,5.20
2022-11-20T00:09:19.225Z,5.40
2022-11-20T00:14:21.753Z,5.60
2022-11-20T00:19:24.194Z,5.70
2022-11-20T00:24:26.478Z,5.70
2022-11-20T00:29:28.761Z,5.50
2022-11-20T00:34:31.208Z,5.30
2022-11-20T00:39:33.689Z,5.30
2022-11-20T00:44:36.065Z,6.50
2022-11-20T00:49:38.329Z,5.60
2022-11-20T00:54:40.604Z,5.20
2022-11-20T00:59:42.912Z,5.20
2022-11-20T01:04:45.596Z,5.40
2022-11-20T01:09:47.874Z,5.90
2022-11-20T01:14:50.144Z,5.70
2022-11-20T01:19:52.509Z,5.70
2022-11-20T01:24:54.762Z,6.10
2022-11-20T01:30:01.114Z,6.20
2022-11-20T01:35:03.975Z,6.30
2022-11-20T01:40:06.822Z,4.80
2022-11-20T01:45:46.613Z,6.30
2022-11-20T01:50:49.702Z,6.20
2022-11-20T01:55:57.708Z,5.90
2022-11-20T02:01:00.461Z,8.40
2022-11-20T02:06:26.675Z,6.00
2022-11-20T02:11:31.304Z,8.00
2022-11-20T02:16:45.706Z,6.60
2022-11-20T02:21:57.371Z,6.80
2022-11-20T02:27:10.960Z,7.00
2022-11-20T02:32:25.348Z,7.10
2022-11-20T02:37:33.605Z,7.10
2022-11-20T02:42:37.250Z,6.90
2022-11-20T02:47:39.747Z,7.00
2022-11-20T02:52:42.422Z,6.90
2022-11-20T02:57:44.829Z,6.60
2022-11-20T03:02:47.606Z,6.40
2022-11-20T03:07:50.303Z,6.50
2022-11-20T03:12:56.475Z,6.60
2022-11-20T03:17:58.953Z,6.60
2022-11-20T03:23:01.771Z,6.90
2022-11-20T03:28:04.179Z,6.60
2022-11-20T03:33:06.583Z,6.80
2022-11-20T03:38:08.971Z,7.10
2022-11-20T03:43:11.360Z,6.90
2022-11-20T03:48:13.724Z,6.90
2022-11-20T03:53:16.753Z,6.70
2022-11-20T03:58:19.339Z,6.50
2022-11-20T04:03:21.997Z,6.40
2022-11-20T04:08:24.411Z,6.20
2022-11-20T04:13:26.768Z,6.30
2022-11-20T04:18:29.162Z,6.30
2022-11-20T04:23:31.620Z,6.30
2022-11-20T04:28:34.081Z,6.20
2022-11-20T04:33:37.847Z,6.10
2022-11-20T04:38:40.876Z,6.30
2022-11-20T04:43:48.532Z,6.20
2022-11-20T04:48:50.811Z,6.30
2022-11-20T04:53:53.157Z,5.70
2022-11-20T04:58:55.563Z,5.90
2022-11-20T05:03:57.927Z,5.30
2022-11-20T05:09:00.381Z,6.30
2022-11-20T05:14:02.750Z,6.40
2022-11-20T05:19:05.266Z,6.60
2022-11-20T05:29:12.856Z,6.80
2022-11-20T05:34:15.329Z,6.80
2022-11-20T05:39:17.716Z,6.80
2022-11-20T05:44:20.004Z,6.90
2022-11-20T05:49:22.486Z,7.00
2022-11-20T05:54:24.987Z,7.10
2022-11-20T05:59:27.368Z,7.10
2022-11-20T06:04:29.827Z,7.20
2022-11-20T06:09:32.147Z,7.30
2022-11-20T06:14:34.792Z,7.20
2022-11-20T06:19:37.053Z,7.20
2022-11-20T06:24:39.289Z,7.30
2022-11-20T06:29:41.567Z,7.30
2022-11-20T06:34:44.542Z,7.20
2022-11-20T06:39:46.927Z,7.20
2022-11-20T06:44:49.261Z,7.20
2022-11-20T06:49:51.759Z,7.20
2022-11-20T06:54:54.777Z,7.00
2022-11-20T06:59:57.196Z,7.00
2022-11-20T07:04:59.454Z,6.80
2022-11-20T07:10:01.839Z,6.80
2022-11-20T07:15:04.662Z,6.90
2022-11-20T07:20:07.928Z,7.00
2022-11-20T07:25:12.065Z,6.90
2022-11-20T07:30:15.422Z,6.90
2022-11-20T07:35:18.045Z,6.90
2022-11-20T07:40:20.916Z,6.80
2022-11-20T07:45:24.963Z,6.80
2022-11-20T07:50:27.349Z,6.90
2022-11-20T07:55:29.616Z,6.80
2022-11-20T08:00:32.057Z,7.70
2022-11-20T08:05:34.635Z,6.80
2022-11-20T08:10:36.916Z,6.80
2022-11-20T08:15:40.700Z,6.80
2022-11-20T08:20:43.103Z,6.70
2022-11-20T08:25:50.822Z,6.60
2022-11-20T08:30:59.684Z,6.80
2022-11-20T08:36:03.913Z,6.90
2022-11-20T08:41:28.766Z,7.00
2022-11-20T08:46:37.872Z,7.10
2022-11-20T08:51:40.840Z,7.00
2022-11-20T08:56:43.091Z,6.90
2022-11-20T09:01:45.414Z,7.10
2022-11-20T09:06:51.700Z,7.20
2022-11-20T09:11:54.413Z,7.20
2022-11-20T09:16:57.864Z,7.40
2022-11-20T09:22:00.955Z,7.40
2022-11-20T09:27:05.335Z,7.40
2022-11-20T09:32:07.589Z,7.50
2022-11-20T09:37:09.848Z,7.40
2022-11-20T09:42:27.174Z,7.40
2022-11-20T09:47:55.728Z,7.50
2022-11-20T09:53:04.744Z,7.60
2022-11-20T09:58:13.912Z,7.60
2022-11-20T10:03:23.249Z,7.70
2022-11-20T10:08:32.736Z,7.80
2022-11-20T10:14:04.221Z,7.80
2022-11-20T10:19:41.432Z,8.00
2022-11-20T10:25:08.307Z,7.90
2022-11-20T10:30:14.298Z,8.00
2022-11-20T10:35:34.407Z,8.10
2022-11-20T10:40:41.898Z,8.20
2022-11-20T10:46:09.692Z,8.00
2022-11-20T10:51:38.173Z,8.00
2022-11-20T10:56:49.930Z,7.70
2022-11-20T11:01:52.755Z,7.40
2022-11-20T11:07:05.523Z,7.50
2022-11-20T11:12:12.283Z,7.40
2022-11-20T11:17:29.653Z,6.80
2022-11-20T11:22:35.417Z,6.60
2022-11-20T11:27:50.182Z,6.50
2022-11-20T11:33:04.183Z,6.60
2022-11-20T11:38:13.078Z,6.50
2022-11-20T11:43:43.374Z,6.70
2022-11-20T11:49:22.331Z,6.70
2022-11-20T11:54:30.866Z,6.30
2022-11-20T11:59:59.203Z,6.60
2022-11-20T12:05:24.396Z,6.80
2022-11-20T12:10:38.149Z,6.90
2022-11-20T12:15:45.556Z,6.50
2022-11-20T12:21:00.236Z,6.60
2022-11-20T12:26:09.170Z,6.60
2022-11-20T12:31:34.625Z,6.60
2022-11-20T12:36:47.891Z,6.50
2022-11-20T12:42:43.402Z,6.60
2022-11-20T12:47:57.016Z,6.50
2022-11-20T12:53:07.517Z,7.00
2022-11-20T12:58:34.792Z,7.00
2022-11-20T13:04:10.647Z,7.40
2022-11-20T13:09:16.252Z,7.20
2022-11-20T13:14:38.554Z,7.20
2022-11-20T13:19:41.333Z,7.20
2022-11-20T13:24:52.858Z,7.30
2022-11-20T13:30:18.208Z,7.60
2022-11-20T13:35:32.759Z,7.70
2022-11-20T13:40:38.477Z,7.90
2022-11-20T13:45:40.709Z,7.80
2022-11-20T13:51:05.064Z,8.00
2022-11-20T13:56:24.311Z,8.30
2022-11-20T14:01:32.307Z,8.20
2022-11-20T14:06:42.961Z,8.40
2022-11-20T14:11:48.768Z,8.40
2022-11-20T14:16:54.293Z,8.30
2022-11-20T14:22:18.668Z,8.30
2022-11-20T14:27:22.224Z,8.30
2022-11-20T14:32:29.452Z,8.40
2022-11-20T14:37:37.365Z,8.40
2022-11-20T14:42:44.807Z,8.40
2022-11-20T14:47:47.735Z,8.30
2022-11-20T14:53:01.454Z,8.30
2022-11-20T14:58:25.788Z,10.30
2022-11-20T15:03:34.706Z,8.40
2022-11-20T15:08:37.716Z,8.50
2022-11-20T15:13:41.417Z,8.60
2022-11-20T15:18:44.114Z,8.50
2022-11-20T15:23:46.591Z,8.60
2022-11-20T15:28:50.930Z,8.40
2022-11-20T15:33:53.401Z,8.60
2022-11-20T15:38:55.808Z,8.60
2022-11-20T15:43:58.171Z,8.70
2022-11-20T15:49:01.502Z,8.70
2022-11-20T15:54:16.797Z,8.60
2022-11-20T15:59:19.521Z,8.60
2022-11-20T16:04:22.391Z,8.50
2022-11-20T16:09:24.944Z,8.50
2022-11-20T16:15:00.035Z,8.70
2022-11-20T16:20:02.356Z,8.60
2022-11-20T16:25:05.194Z,8.80
2022-11-20T16:30:08.393Z,8.40
2022-11-20T16:35:10.663Z,8.50
2022-11-20T16:40:13.242Z,8.40
2022-11-20T16:45:21.527Z,8.40
2022-11-20T16:50:27.576Z,8.50
2022-11-20T16:55:29.988Z,8.30
2022-11-20T17:00:32.287Z,8.10
2022-11-20T17:05:35.650Z,8.20
2022-11-20T17:10:38.019Z,8.20
2022-11-20T17:15:40.385Z,8.10
2022-11-20T17:20:42.732Z,8.30
2022-11-20T17:25:45.268Z,8.30
2022-11-20T17:30:47.899Z,8.20
2022-11-20T17:35:50.311Z,8.30
2022-11-20T17:40:53.037Z,8.40
2022-11-20T17:45:56.469Z,8.60
2022-11-20T17:51:03.800Z,8.60
2022-11-20T17:56:25.359Z,8.60
2022-11-20T18:01:27.863Z,8.60
2022-11-20T18:06:30.958Z,8.60
2022-11-20T18:11:36.283Z,8.60
2022-11-20T18:16:44.424Z,8.60
2022-11-20T18:21:46.852Z,8.50
2022-11-20T18:26:49.218Z,8.60
2022-11-20T18:31:51.540Z,8.70
2022-11-20T18:36:54.268Z,8.70
2022-11-20T18:42:15.110Z,8.60
2022-11-20T18:47:23.854Z,8.60
2022-11-20T18:52:34.806Z,8.60
2022-11-20T18:57:37.180Z,8.60
2022-11-20T19:02:42.584Z,8.60
2022-11-20T19:07:45.694Z,8.60
2022-11-20T19:12:48.271Z,8.60
2022-11-20T19:17:51.915Z,8.60
2022-11-20T19:22:54.241Z,8.60
2022-11-20T19:27:56.555Z,8.60
2022-11-20T19:32:58.833Z,8.60
2022-11-20T19:38:05.355Z,8.70
2022-11-20T19:43:08.345Z,8.60
2022-11-20T19:48:10.805Z,8.70
2022-11-20T19:53:13.569Z,8.40
2022-11-20T19:58:16.150Z,8.60
2022-11-20T20:03:18.993Z,8.80
2022-11-20T20:08:21.273Z,8.50
2022-11-20T20:13:24.058Z,8.50
2022-11-20T20:18:26.377Z,8.50
2022-11-20T20:23:28.618Z,8.30
2022-11-20T20:33:37.505Z,8.20
2022-11-20T20:38:42.290Z,8.10
2022-11-20T20:44:04.537Z,8.10
2022-11-20T20:49:07.743Z,8.20
2022-11-20T20:54:12.097Z,8.20
2022-11-20T20:59:14.445Z,8.10
2022-11-20T21:04:16.919Z,8.00
2022-11-20T21:09:20.254Z,8.10
2022-11-20T21:14:23.058Z,8.10
2022-11-20T21:19:25.633Z,8.10
2022-11-20T21:24:29.353Z,8.00
2022-11-20T21:29:31.857Z,8.10
2022-11-20T21:34:34.762Z,8.00
2022-11-20T21:39:50.385Z,8.10
2022-11-20T21:44:52.721Z,8.20
2022-11-20T21:49:55.013Z,8.30
2022-11-20T21:54:57.276Z,8.30
2022-11-20T22:00:00.191Z,8.40
2022-11-20T22:05:02.814Z,8.30
2022-11-20T22:10:13.110Z,8.30
2022-11-20T22:15:45.819Z,8.30
2022-11-20T22:20:45.541Z,8.30
2022-11-20T22:25:47.871Z,8.20
2022-11-20T22:30:50.206Z,8.10
2022-11-20T22:35:52.688Z,8.10
2022-11-20T22:41:00.874Z,8.30
2022-11-20T22:46:15.026Z,8.40
2022-11-20T22:51:19.903Z,8.30
2022-11-20T22:56:22.682Z,8.20
2022-11-20T23:01:33.062Z,8.20
2022-11-20T23:06:35.864Z,8.30
2022-11-20T23:11:38.676Z,8.40
2022-11-20T23:16:41.885Z,8.30
2022-11-20T23:21:44.344Z,8.30
2022-11-20T23:26:47.839Z,8.30
2022-11-20T23:31:50.182Z,8.30
2022-11-20T23:36:52.453Z,8.20
2022-11-20T23:41:54.777Z,8.30
2022-11-20T23:46:57.179Z,8.40
2022-11-20T23:51:59.600Z,8.50
2022-11-20T23:57:01.965Z,8.40
